Wetterdaten: Woche 14.06.10 - 20.06.10 (KW24)
Datum Zeit Temp. A. Feuchte A. Luftdruck Regen Wind Richtung Taupunkt Windchill Windben
14.06.2010 00:00 18,5 C 86 % 1009,4 hPa 1,6 l/m 1,4 km/h SW 16,1 C 18,5 C 6,8 km/h
14.06.2010 01:00 18,0 C 88 % 1009,4 hPa 3,1 l/m 0,4 km/h N 15,9 C 18,0 C 3,2 km/h
14.06.2010 02:00 17,6 C 88 % 1008,7 hPa 0,0 l/m 0,0 km/h N 15,5 C 17,6 C 0,0 km/h
14.06.2010 03:00 17,4 C 89 % 1008,1 hPa 0,0 l/m 0,0 km/h N 15,5 C 17,4 C 0,4 km/h
14.06.2010 04:00 17,2 C 89 % 1007,7 hPa 0,0 l/m 0,0 km/h N 15,4 C 17,2 C 0,0 km/h
14.06.2010 05:00 16,9 C 90 % 1007,5 hPa 0,0 l/m 0,0 km/h N 15,2 C 16,9 C 0,0 km/h
14.06.2010 06:00 17,0 C 90 % 1008,4 hPa 0,0 l/m 0,2 km/h N 15,4 C 17,0 C 2,4 km/h
14.06.2010 07:00 17,3 C 90 % 1008,6 hPa 0,0 l/m 2,0 km/h S-SO 15,6 C 17,3 C 9,3 km/h
14.06.2010 08:00 17,7 C 87 % 1008,9 hPa 0,0 l/m 3,1 km/h S-SW 15,6 C 17,7 C 14,9 km/h
14.06.2010 09:00 19,3 C 78 % 1009,2 hPa 0,0 l/m 6,4 km/h W-SW 15,3 C 19,1 C 20,9 km/h
14.06.2010 10:00 19,8 C 73 % 1009,9 hPa 0,0 l/m 5,6 km/h W-SW 14,9 C 19,8 C 24,9 km/h
14.06.2010 11:00 20,3 C 73 % 1010,8 hPa 0,0 l/m 7,9 km/h NW 15,3 C 19,6 C 20,5 km/h
14.06.2010 12:00 19,9 C 74 % 1011,7 hPa 0,0 l/m 7,4 km/h W-NW 15,0 C 19,2 C 17,7 km/h
14.06.2010 13:00 20,0 C 71 % 1012,2 hPa 0,0 l/m 5,8 km/h NW 14,5 C 20,0 C 15,7 km/h
14.06.2010 14:00 20,7 C 69 % 1012,5 hPa 0,0 l/m 7,9 km/h NW 14,8 C 20,1 C 17,3 km/h
14.06.2010 15:00 20,6 C 68 % 1012,9 hPa 0,0 l/m 8,0 km/h N-NO 14,6 C 20,0 C 16,6 km/h
14.06.2010 16:00 21,1 C 67 % 1013,0 hPa 0,0 l/m 7,2 km/h NO 14,6 C 20,7 C 16,5 km/h
14.06.2010 17:00 20,3 C 68 % 1013,2 hPa 0,0 l/m 7,1 km/h N 14,2 C 20,0 C 16,1 km/h
14.06.2010 18:00 19,8 C 69 % 1013,8 hPa 0,0 l/m 5,7 km/h NO 13,8 C 19,7 C 15,7 km/h
14.06.2010 19:00 19,4 C 68 % 1014,4 hPa 0,0 l/m 5,9 km/h N-NW 13,2 C 19,4 C 13,7 km/h
14.06.2010 20:00 18,8 C 70 % 1014,7 hPa 0,0 l/m 2,3 km/h N-NW 13,2 C 18,8 C 6,4 km/h
14.06.2010 21:00 17,8 C 76 % 1015,7 hPa 0,0 l/m 0,8 km/h N-NW 13,3 C 17,8 C 4,4 km/h
14.06.2010 22:00 16,4 C 84 % 1016,5 hPa 0,0 l/m 0,1 km/h N 13,6 C 16,4 C 1,2 km/h
14.06.2010 23:00 16,1 C 82 % 1017,3 hPa 0,0 l/m 0,9 km/h N-NO 13,0 C 16,1 C 3,6 km/h
15.06.2010 00:00 14,9 C 81 % 1018,0 hPa 0,0 l/m 0,5 km/h N-NW 11,6 C 14,9 C 3,2 km/h
15.06.2010 01:00 13,9 C 82 % 1018,1 hPa 0,0 l/m 0,0 km/h N 10,9 C 13,9 C 0,8 km/h
15.06.2010 02:00 13,7 C 81 % 1018,8 hPa 0,0 l/m 0,0 km/h N 10,4 C 13,7 C 0,8 km/h
15.06.2010 03:00 13,1 C 83 % 1018,5 hPa 0,0 l/m 0,2 km/h N 10,2 C 13,1 C 1,2 km/h
15.06.2010 04:00 13,0 C 82 % 1018,5 hPa 0,0 l/m 0,0 km/h N 9,9 C 13,0 C 1,2 km/h
15.06.2010 05:00 13,3 C 79 % 1018,5 hPa 0,0 l/m 0,1 km/h N 9,7 C 13,3 C 2,0 km/h
15.06.2010 06:00 13,7 C 77 % 1018,4 hPa 0,0 l/m 0,2 km/h N 9,8 C 13,7 C 2,0 km/h
15.06.2010 07:00 14,2 C 75 % 1018,6 hPa 0,0 l/m 0,2 km/h N 9,8 C 14,2 C 2,8 km/h
15.06.2010 08:00 15,3 C 71 % 1018,7 hPa 0,0 l/m 0,4 km/h N 9,9 C 15,3 C 4,8 km/h
15.06.2010 09:00 16,6 C 67 % 1018,0 hPa 0,0 l/m 0,2 km/h N 10,4 C 16,6 C 2,6 km/h
15.06.2010 10:00 18,3 C 61 % 1017,5 hPa 0,0 l/m 0,9 km/h NO 10,7 C 18,3 C 4,4 km/h
15.06.2010 11:00 19,9 C 60 % 1017,4 hPa 0,0 l/m 1,4 km/h O 11,8 C 19,9 C 5,2 km/h
15.06.2010 12:00 20,6 C 61 % 1017,4 hPa 0,0 l/m 1,6 km/h NO 12,8 C 20,6 C 5,2 km/h
15.06.2010 13:00 20,5 C 63 % 1016,9 hPa 0,0 l/m 1,1 km/h NO 13,3 C 20,5 C 4,4 km/h
15.06.2010 14:00 21,3 C 61 % 1016,6 hPa 0,0 l/m 1,2 km/h NO 13,3 C 21,3 C 4,8 km/h
15.06.2010 15:00 21,5 C 64 % 1016,6 hPa 0,0 l/m 0,4 km/h N 14,3 C 21,5 C 2,4 km/h
15.06.2010 16:00 21,3 C 65 % 1016,5 hPa 0,0 l/m 0,1 km/h N-NO 14,4 C 21,3 C 1,2 km/h
15.06.2010 17:00 20,8 C 66 % 1016,5 hPa 0,0 l/m 2,3 km/h N-NW 14,1 C 20,8 C 6,4 km/h
15.06.2010 18:00 19,1 C 74 % 1016,8 hPa 0,0 l/m 3,1 km/h N-NW 14,3 C 19,1 C 6,4 km/h
15.06.2010 19:00 18,3 C 81 % 1017,1 hPa 0,0 l/m 2,6 km/h NW 14,8 C 18,3 C 6,8 km/h
15.06.2010 20:00 17,4 C 83 % 1017,2 hPa 0,0 l/m 1,5 km/h NW 14,4 C 17,4 C 5,2 km/h
15.06.2010 21:00 16,9 C 83 % 1017,4 hPa 0,0 l/m 0,5 km/h NW 14,0 C 16,9 C 3,6 km/h
15.06.2010 22:00 16,4 C 86 % 1017,3 hPa 1,0 l/m 0,7 km/h NW 14,1 C 16,4 C 3,2 km/h
15.06.2010 23:00 15,8 C 88 % 1017,6 hPa 1,0 l/m 0,3 km/h N 13,8 C 15,8 C 2,0 km/h
16.06.2010 00:00 15,2 C 89 % 1017,6 hPa 0,3 l/m 0,3 km/h N 13,4 C 15,2 C 2,8 km/h
16.06.2010 01:00 15,0 C 89 % 1017,4 hPa 0,0 l/m 0,3 km/h N 13,2 C 15,0 C 2,0 km/h
16.06.2010 02:00 15,2 C 89 % 1017,0 hPa 0,0 l/m 0,3 km/h N 13,4 C 15,2 C 3,2 km/h
16.06.2010 03:00 15,1 C 88 % 1016,6 hPa 0,0 l/m 0,4 km/h N 13,2 C 15,1 C 2,8 km/h
16.06.2010 04:00 15,1 C 88 % 1016,3 hPa 0,0 l/m 0,9 km/h NW 13,1 C 15,1 C 4,0 km/h
16.06.2010 05:00 14,9 C 88 % 1015,8 hPa 0,0 l/m 1,8 km/h NW 13,0 C 14,9 C 5,6 km/h
16.06.2010 06:00 14,9 C 88 % 1015,4 hPa 0,0 l/m 2,0 km/h N-NW 12,9 C 14,9 C 5,6 km/h
16.06.2010 07:00 15,1 C 87 % 1015,3 hPa 0,0 l/m 1,3 km/h N-NW 12,8 C 15,1 C 5,2 km/h
16.06.2010 08:00 15,3 C 85 % 1015,7 hPa 0,5 l/m 0,9 km/h N-NO 12,8 C 15,3 C 4,8 km/h
16.06.2010 09:00 15,0 C 87 % 1015,9 hPa 5,5 l/m 1,0 km/h N 12,8 C 15,0 C 4,0 km/h
16.06.2010 10:00 14,9 C 89 % 1015,7 hPa 3,4 l/m 1,9 km/h N-NW 13,0 C 14,9 C 6,0 km/h
16.06.2010 11:00 14,8 C 89 % 1015,8 hPa 3,4 l/m 3,0 km/h N 13,0 C 14,8 C 8,4 km/h
16.06.2010 12:00 14,8 C 90 % 1015,7 hPa 0,5 l/m 1,6 km/h N-NO 13,2 C 14,8 C 4,8 km/h
16.06.2010 13:00 14,9 C 90 % 1015,7 hPa 7,8 l/m 1,2 km/h NO 13,3 C 14,9 C 6,0 km/h
16.06.2010 14:00 14,8 C 91 % 1015,7 hPa 4,9 l/m 1,7 km/h N-NO 13,3 C 14,8 C 6,0 km/h
16.06.2010 15:00 14,9 C 91 % 1015,6 hPa 4,2 l/m 1,4 km/h NO 13,4 C 14,9 C 5,6 km/h
16.06.2010 16:00 14,9 C 91 % 1015,7 hPa 2,1 l/m 0,8 km/h N-NW 13,4 C 14,9 C 4,4 km/h
16.06.2010 17:00 15,1 C 91 % 1015,7 hPa 1,3 l/m 0,6 km/h N-NO 13,7 C 15,1 C 4,0 km/h
16.06.2010 18:00 15,1 C 91 % 1015,9 hPa 0,8 l/m 0,7 km/h N 13,6 C 15,1 C 3,6 km/h
16.06.2010 19:00 14,9 C 91 % 1016,1 hPa 0,0 l/m 1,0 km/h NO 13,5 C 14,9 C 4,0 km/h
16.06.2010 20:00 14,9 C 92 % 1016,3 hPa 0,5 l/m 0,9 km/h NO 13,6 C 14,9 C 4,0 km/h
16.06.2010 21:00 14,9 C 92 % 1017,0 hPa 0,8 l/m 0,2 km/h N 13,6 C 14,9 C 2,4 km/h
16.06.2010 22:00 14,9 C 92 % 1017,2 hPa 0,8 l/m 0,4 km/h N 13,6 C 14,9 C 3,2 km/h
16.06.2010 23:00 14,9 C 92 % 1017,2 hPa 0,5 l/m 0,1 km/h N 13,6 C 14,9 C 2,0 km/h
17.06.2010 00:00 14,9 C 92 % 1017,3 hPa 0,3 l/m 0,1 km/h N 13,6 C 14,9 C 1,2 km/h
17.06.2010 01:00 14,9 C 92 % 1017,4 hPa 0,8 l/m 0,0 km/h N 13,6 C 14,9 C 0,8 km/h
17.06.2010 02:00 14,9 C 92 % 1017,3 hPa 0,3 l/m 0,1 km/h N 13,6 C 14,9 C 2,0 km/h
17.06.2010 03:00 14,8 C 92 % 1017,2 hPa 0,0 l/m 0,4 km/h N 13,5 C 14,8 C 2,8 km/h
17.06.2010 04:00 14,8 C 92 % 1016,9 hPa 0,0 l/m 0,1 km/h N 13,5 C 14,8 C 1,2 km/h
17.06.2010 05:00 14,7 C 92 % 1017,0 hPa 0,0 l/m 0,1 km/h N 13,4 C 14,7 C 1,6 km/h
17.06.2010 06:00 14,6 C 92 % 1017,2 hPa 0,0 l/m 0,0 km/h N 13,3 C 14,6 C 0,4 km/h
17.06.2010 07:00 14,3 C 92 % 1017,3 hPa 0,0 l/m 0,0 km/h N 13,0 C 14,3 C 0,4 km/h
17.06.2010 08:00 14,1 C 92 % 1017,2 hPa 0,0 l/m 0,1 km/h N 12,8 C 14,1 C 0,8 km/h
17.06.2010 09:00 14,4 C 92 % 1017,2 hPa 0,0 l/m 0,0 km/h N 13,1 C 14,4 C 0,0 km/h
17.06.2010 10:00 14,8 C 92 % 1017,1 hPa 0,0 l/m 0,1 km/h N 13,5 C 14,8 C 1,6 km/h
17.06.2010 11:00 15,5 C 92 % 1016,8 hPa 0,0 l/m 0,2 km/h N 14,2 C 15,5 C 2,0 km/h
17.06.2010 12:00 16,4 C 92 % 1016,7 hPa 0,0 l/m 0,6 km/h O-NO 15,1 C 16,4 C 3,2 km/h
17.06.2010 13:00 17,2 C 91 % 1016,4 hPa 0,0 l/m 0,0 km/h N 15,8 C 17,2 C 2,1 km/h
17.06.2010 14:00 18,3 C 87 % 1015,9 hPa 0,0 l/m 0,0 km/h N 16,0 C 18,3 C 4,0 km/h
17.06.2010 15:00 18,7 C 83 % 1015,3 hPa 0,0 l/m 0,0 km/h N 15,7 C 18,7 C 3,2 km/h
17.06.2010 16:00 19,1 C 81 % 1014,6 hPa 0,0 l/m 0,0 km/h N 15,8 C 19,1 C 2,4 km/h
17.06.2010 17:00 19,3 C 82 % 1014,1 hPa 0,0 l/m 0,1 km/h N 16,0 C 19,3 C 2,7 km/h
17.06.2010 18:00 19,4 C 82 % 1013,8 hPa 0,0 l/m 0,0 km/h N 16,2 C 19,4 C 2,0 km/h
17.06.2010 19:00 19,4 C 82 % 1013,6 hPa 0,0 l/m 0,6 km/h S-SO 16,3 C 19,4 C 3,6 km/h
17.06.2010 20:00 19,3 C 83 % 1013,3 hPa 0,0 l/m 0,1 km/h N 16,4 C 19,3 C 1,2 km/h
17.06.2010 21:00 18,6 C 84 % 1013,0 hPa 0,0 l/m 0,0 km/h N 15,8 C 18,6 C 0,4 km/h
17.06.2010 22:00 17,9 C 85 % 1012,6 hPa 0,0 l/m 0,0 km/h N 15,3 C 17,9 C 0,8 km/h
17.06.2010 23:00 17,2 C 87 % 1012,3 hPa 0,0 l/m 0,0 km/h N 14,9 C 17,2 C 0,4 km/h
18.06.2010 00:00 17,1 C 89 % 1012,0 hPa 0,0 l/m 0,0 km/h N 15,2 C 17,1 C 0,4 km/h
18.06.2010 01:00 17,4 C 89 % 1011,2 hPa 0,0 l/m 0,2 km/h N 15,6 C 17,4 C 2,4 km/h
18.06.2010 02:00 17,3 C 90 % 1010,8 hPa 0,0 l/m 0,0 km/h N 15,7 C 17,3 C 0,8 km/h
18.06.2010 03:00 17,4 C 90 % 1010,2 hPa 0,0 l/m 0,0 km/h N 15,7 C 17,4 C 0,0 km/h
18.06.2010 04:00 17,3 C 90 % 1009,3 hPa 0,0 l/m 0,0 km/h N 15,6 C 17,3 C 0,0 km/h
18.06.2010 05:00 16,8 C 90 % 1008,9 hPa 0,0 l/m 0,0 km/h N 15,1 C 16,8 C 0,0 km/h
18.06.2010 06:00 16,2 C 90 % 1009,0 hPa 0,0 l/m 0,0 km/h N 14,6 C 16,2 C 1,2 km/h
18.06.2010 07:00 17,0 C 91 % 1008,7 hPa 0,0 l/m 0,0 km/h N 15,6 C 17,0 C 0,8 km/h
18.06.2010 08:00 17,7 C 91 % 1008,4 hPa 0,0 l/m 0,1 km/h N 16,2 C 17,7 C 0,8 km/h
18.06.2010 09:00 18,6 C 90 % 1008,2 hPa 0,0 l/m 0,2 km/h N 17,0 C 18,6 C 1,2 km/h
18.06.2010 10:00 20,0 C 83 % 1007,7 hPa 0,3 l/m 0,3 km/h N 16,9 C 20,0 C 2,8 km/h
18.06.2010 11:00 20,5 C 82 % 1007,3 hPa 0,0 l/m 0,0 km/h N 17,3 C 20,5 C 0,4 km/h
18.06.2010 12:00 20,2 C 82 % 1006,7 hPa 0,0 l/m 0,5 km/h O 17,0 C 20,2 C 2,8 km/h
18.06.2010 13:00 20,1 C 81 % 1006,5 hPa 0,8 l/m 1,1 km/h O 16,8 C 20,1 C 6,0 km/h
18.06.2010 14:00 19,5 C 83 % 1005,9 hPa 3,1 l/m 0,8 km/h N 16,5 C 19,5 C 4,4 km/h
18.06.2010 15:00 19,4 C 86 % 1005,3 hPa 0,0 l/m 0,8 km/h W-SW 16,9 C 19,4 C 4,8 km/h
18.06.2010 16:00 19,8 C 83 % 1004,4 hPa 0,0 l/m 1,0 km/h S 16,9 C 19,8 C 4,8 km/h
18.06.2010 17:00 20,1 C 83 % 1004,2 hPa 0,0 l/m 1,2 km/h N-NW 17,0 C 20,1 C 7,2 km/h
18.06.2010 18:00 18,6 C 76 % 1004,8 hPa 0,0 l/m 2,8 km/h N-NW 14,3 C 18,5 C 8,8 km/h
18.06.2010 19:00 18,2 C 78 % 1004,8 hPa 0,0 l/m 1,6 km/h N 14,1 C 18,2 C 7,2 km/h
18.06.2010 20:00 18,3 C 70 % 1004,5 hPa 0,0 l/m 4,9 km/h W 12,7 C 18,3 C 19,3 km/h
18.06.2010 21:00 17,9 C 68 % 1004,7 hPa 0,0 l/m 4,3 km/h S 11,9 C 17,9 C 20,9 km/h
18.06.2010 22:00 17,3 C 70 % 1004,8 hPa 0,0 l/m 4,5 km/h S-SW 11,7 C 17,3 C 18,5 km/h
18.06.2010 23:00 16,9 C 73 % 1004,3 hPa 0,0 l/m 5,3 km/h W-SW 12,0 C 16,9 C 18,1 km/h
19.06.2010 00:00 16,4 C 76 % 1004,2 hPa 0,0 l/m 3,3 km/h SW 12,1 C 16,4 C 20,9 km/h
19.06.2010 01:00 16,2 C 77 % 1003,8 hPa 0,0 l/m 3,2 km/h SO 12,2 C 16,2 C 17,7 km/h
19.06.2010 02:00 16,2 C 77 % 1003,6 hPa 0,0 l/m 3,3 km/h NO 12,2 C 16,2 C 16,1 km/h
19.06.2010 03:00 15,9 C 79 % 1003,7 hPa 0,0 l/m 2,2 km/h O-NO 12,2 C 15,9 C 12,1 km/h
19.06.2010 04:00 15,8 C 80 % 1003,9 hPa 0,0 l/m 2,8 km/h NW 12,2 C 15,8 C 15,3 km/h
19.06.2010 05:00 15,0 C 83 % 1004,1 hPa 0,5 l/m 2,3 km/h SO 12,2 C 15,0 C 7,6 km/h
19.06.2010 06:00 14,8 C 85 % 1004,4 hPa 0,0 l/m 0,8 km/h N 12,3 C 14,8 C 6,8 km/h
19.06.2010 07:00 14,9 C 85 % 1004,5 hPa 0,0 l/m 1,0 km/h SW 12,3 C 14,9 C 5,6 km/h
19.06.2010 08:00 15,1 C 83 % 1004,6 hPa 0,0 l/m 1,5 km/h S 12,2 C 15,1 C 5,2 km/h
19.06.2010 09:00 15,3 C 83 % 1004,5 hPa 0,0 l/m 0,8 km/h NW 12,4 C 15,3 C 4,8 km/h
19.06.2010 10:00 16,1 C 79 % 1004,5 hPa 0,0 l/m 1,9 km/h N-NW 12,5 C 16,1 C 7,6 km/h
19.06.2010 11:00 15,3 C 80 % 1005,3 hPa 0,0 l/m 2,7 km/h N-NW 11,9 C 15,3 C 8,5 km/h
19.06.2010 12:00 15,1 C 83 % 1005,3 hPa 0,0 l/m 1,2 km/h N 12,1 C 15,1 C 5,2 km/h
19.06.2010 13:00 17,0 C 74 % 1004,7 hPa 0,0 l/m 1,4 km/h NO 12,4 C 17,0 C 5,6 km/h
19.06.2010 14:00 18,2 C 70 % 1004,1 hPa 0,0 l/m 1,8 km/h O-NO 12,7 C 18,2 C 6,0 km/h
19.06.2010 15:00 18,0 C 70 % 1003,7 hPa 0,0 l/m 1,7 km/h O 12,4 C 18,0 C 5,6 km/h
19.06.2010 16:00 17,8 C 70 % 1003,5 hPa 0,0 l/m 2,2 km/h N-NO 12,3 C 17,8 C 5,6 km/h
19.06.2010 17:00 17,9 C 67 % 1003,6 hPa 0,0 l/m 2,5 km/h N-NW 11,7 C 17,9 C 7,6 km/h
19.06.2010 18:00 17,8 C 68 % 1003,7 hPa 0,0 l/m 2,0 km/h N-NW 11,7 C 17,8 C 7,6 km/h
19.06.2010 19:00 16,7 C 75 % 1003,9 hPa 0,0 l/m 2,9 km/h N-NW 12,2 C 16,7 C 8,1 km/h
19.06.2010 20:00 16,0 C 77 % 1004,2 hPa 0,0 l/m 2,1 km/h N-NW 11,8 C 16,0 C 6,4 km/h
19.06.2010 21:00 15,3 C 77 % 1004,4 hPa 0,0 l/m 1,5 km/h N-NW 11,3 C 15,3 C 5,6 km/h
19.06.2010 22:00 15,4 C 76 % 1004,4 hPa 0,0 l/m 2,4 km/h N-NW 11,0 C 15,4 C 7,6 km/h
19.06.2010 23:00 15,3 C 77 % 1004,8 hPa 0,0 l/m 2,7 km/h NW 11,3 C 15,3 C 8,5 km/h
20.06.2010 00:00 14,6 C 77 % 1004,7 hPa 0,0 l/m 3,1 km/h N-NW 10,6 C 14,6 C 10,1 km/h
20.06.2010 01:00 14,0 C 78 % 1004,5 hPa 0,0 l/m 2,4 km/h N-NW 10,2 C 14,0 C 9,3 km/h
20.06.2010 02:00 13,8 C 78 % 1004,4 hPa 0,0 l/m 2,2 km/h NW 10,0 C 13,8 C 8,9 km/h
20.06.2010 03:00 13,5 C 78 % 1004,0 hPa 0,0 l/m 2,9 km/h W 9,8 C 13,5 C 8,9 km/h
20.06.2010 04:00 13,3 C 79 % 1004,0 hPa 0,0 l/m 3,7 km/h NW 9,7 C 13,3 C 9,7 km/h
20.06.2010 05:00 13,1 C 80 % 1004,0 hPa 0,0 l/m 3,7 km/h NW 9,7 C 13,1 C 10,5 km/h
20.06.2010 06:00 12,9 C 81 % 1004,3 hPa 0,0 l/m 3,8 km/h NW 9,7 C 12,9 C 10,5 km/h
20.06.2010 07:00 13,5 C 80 % 1004,7 hPa 0,0 l/m 5,0 km/h N-NW 10,1 C 13,5 C 12,5 km/h
20.06.2010 08:00 14,4 C 75 % 1004,8 hPa 0,0 l/m 6,2 km/h NW 10,0 C 14,3 C 16,1 km/h
20.06.2010 09:00 14,7 C 72 % 1005,0 hPa 0,0 l/m 6,3 km/h N-NW 9,7 C 14,5 C 15,3 km/h
20.06.2010 10:00 15,6 C 70 % 1005,4 hPa 0,0 l/m 7,8 km/h N-NW 10,0 C 14,9 C 18,5 km/h
20.06.2010 11:00 15,9 C 69 % 1005,7 hPa 0,0 l/m 6,3 km/h NW 10,3 C 15,8 C 15,7 km/h
20.06.2010 12:00 15,6 C 75 % 1006,0 hPa 0,0 l/m 4,8 km/h NW 11,1 C 15,6 C 15,7 km/h
20.06.2010 13:00 15,4 C 76 % 1006,5 hPa 0,0 l/m 4,9 km/h NW 11,1 C 15,4 C 12,9 km/h
20.06.2010 14:00 15,1 C 78 % 1006,8 hPa 0,0 l/m 3,8 km/h NW 11,2 C 15,1 C 9,3 km/h
20.06.2010 15:00 14,8 C 76 % 1007,3 hPa 0,0 l/m 7,7 km/h NW 10,5 C 14,0 C 19,7 km/h
20.06.2010 16:00 14,7 C 75 % 1007,5 hPa 0,0 l/m 5,0 km/h N-NW 10,3 C 14,6 C 14,9 km/h
20.06.2010 17:00 14,5 C 73 % 1007,6 hPa 0,0 l/m 6,3 km/h NW 9,6 C 14,4 C 17,3 km/h
20.06.2010 18:00 14,3 C 73 % 1008,2 hPa 0,0 l/m 5,1 km/h NW 9,6 C 14,2 C 13,3 km/h
20.06.2010 19:00 14,3 C 77 % 1008,4 hPa 0,0 l/m 4,9 km/h SO 10,4 C 14,3 C 13,3 km/h
20.06.2010 20:00 13,9 C 80 % 1009,2 hPa 0,0 l/m 4,9 km/h NW 10,4 C 13,8 C 12,1 km/h
20.06.2010 21:00 13,6 C 80 % 1010,1 hPa 0,0 l/m 2,1 km/h NW 10,2 C 13,6 C 10,1 km/h
20.06.2010 22:00 13,3 C 81 % 1010,3 hPa 0,0 l/m 4,0 km/h N-NW 10,1 C 13,3 C 10,9 km/h
20.06.2010 23:00 12,9 C 83 % 1010,5 hPa 0,0 l/m 3,4 km/h W-NW 10,1 C 12,9 C 9,7 km/h
Min-Datum _ 20.06.10 15.06.10 19.06.10 - 14.06.10 - 20.06.10 20.06.10 14.06.10
_ Min-Zeit 23:45 12:30 15:45 - 02:00 - 09:30 23:45 02:00
Minimum _ 12,7 C 58 % 1003,5 hPa - 0,0 km/h - 9,4 C 12,7 C 0,0 km/h
Max-Datum _ 15.06.10 16.06.10 15.06.10 16.06.10 14.06.10 - 18.06.10 15.06.10 14.06.10
_ Max-Zeit 15:00 19:45 02:30 13:00 11:30 - 11:46 15:00 10:30
Maximum _ 22,3 C 92 % 1018,9 hPa 7,8 l/m 11,0 km/h
NW
- 17,6 C 22,3 C 33,8 km/h
S-SW
Durchschnitt _ 16,6 C 81 % 1011,3 hPa #49,9 l/m 1,9 km/h N-NW 13,2 C 16,5 C 6,7 km/h